Panther Creek, Illinois
Current Conditions -  °F | °C
As of 7:35 AM on Saturday 20 Dec 2014 (Local Time) from KIJX Reporting Station
Overcast Overcast  
Wind Chill: 34°   Ceiling: 4600
Heat Index: 34°   Visibility: 7mi
Dew Point: 29°   Wind: 3mph
Humidity: 84%   Direction: 140°SE
Pressure: 30.25"   Gusts: NA
Location:  40.0289°N, 90.1364°W
Report Text: KIJX 201335Z AUTO 14003KT 7SM OVC046 01/M02 A3025 RMK AO2 T00091016
Loading
Personal Weather Stations






























Interactive Weather Map New forecast layout! Learn more

10-Day Weather Forecast

Advertisements
Track Severe Weather on mobile